Time;durP1;ratioP1;P1;durP2;ratioP2;P2;SDS_P1;SDS_P2;PMS_P1;PMS_P2;Temp;Humidity;BMP_temperature;BMP_pressure;BME280_temperature;BME280_humidity;BME280_pressure;Samples;Min_cycle;Max_cycle;Signal;HPM_P1;HPM_P2
2021/03/08 00:00:30;;;;;;;21.37;14.97;;;4.90;96.70;;;;;;5033411;28;20276;-69
2021/03/08 00:02:56;;;;;;;19.73;14.20;;;4.80;96.60;;;;;;5033592;28;20188;-70
2021/03/08 00:05:22;;;;;;;23.30;14.90;;;4.80;96.70;;;;;;5033827;28;20420;-70
2021/03/08 00:07:48;;;;;;;22.30;14.40;;;4.70;96.90;;;;;;5033520;28;20474;-70
2021/03/08 00:10:15;;;;;;;20.30;14.60;;;4.70;97.00;;;;;;5033737;28;20417;-70
2021/03/08 00:12:46;;;;;;;25.27;15.60;;;4.70;97.10;;;;;;5033504;28;20528;-70
2021/03/08 00:15:13;;;;;;;21.57;13.97;;;4.60;97.10;;;;;;5033954;28;20425;-70
2021/03/08 00:17:39;;;;;;;22.20;14.10;;;4.70;97.30;;;;;;5033618;28;20410;-70
2021/03/08 00:20:08;;;;;;;21.00;14.40;;;4.80;97.30;;;;;;5033309;28;20553;-70
2021/03/08 00:22:34;;;;;;;22.27;14.87;;;4.80;97.10;;;;;;5033016;28;20514;-69
2021/03/08 00:25:00;;;;;;;22.07;13.97;;;4.80;97.00;;;;;;5033386;28;20492;-70
2021/03/08 00:27:25;;;;;;;20.10;13.77;;;4.90;97.10;;;;;;5033672;28;20440;-70
2021/03/08 00:29:51;;;;;;;21.77;14.03;;;4.90;97.00;;;;;;5051311;28;20273;-70
2021/03/08 00:32:17;;;;;;;25.07;15.50;;;5.00;97.00;;;;;;5053687;28;20189;-69
2021/03/08 00:34:42;;;;;;;20.00;14.07;;;5.00;96.80;;;;;;5056170;28;20272;-69
2021/03/08 00:37:08;;;;;;;18.50;13.30;;;5.00;96.80;;;;;;5059277;28;20627;-69
2021/03/08 00:39:33;;;;;;;20.77;13.73;;;5.10;96.80;;;;;;5060924;28;20232;-69
2021/03/08 00:41:59;;;;;;;21.40;13.90;;;5.10;96.70;;;;;;5060935;28;20209;-69
2021/03/08 00:44:25;;;;;;;26.23;14.50;;;5.20;96.60;;;;;;5062671;28;20178;-69
2021/03/08 00:46:51;;;;;;;22.83;15.70;;;5.10;96.60;;;;;;5061730;28;20614;-69
2021/03/08 00:49:16;;;;;;;22.80;14.50;;;5.00;96.70;;;;;;5061351;28;20435;-69
2021/03/08 00:51:42;;;;;;;20.60;14.17;;;5.10;96.80;;;;;;5064693;28;20540;-69
2021/03/08 00:54:07;;;;;;;21.27;14.43;;;5.00;96.80;;;;;;5064420;28;20185;-69
2021/03/08 00:56:33;;;;;;;23.47;14.47;;;5.00;97.00;;;;;;5061891;28;20296;-70
2021/03/08 00:58:59;;;;;;;24.67;14.87;;;5.00;97.10;;;;;;5058993;28;20173;-69
2021/03/08 01:01:24;;;;;;;21.67;15.50;;;4.90;97.30;;;;;;5057048;28;20248;-70
2021/03/08 01:03:50;;;;;;;25.40;16.60;;;4.80;97.50;;;;;;5056627;28;20166;-70
2021/03/08 01:06:15;;;;;;;26.60;17.10;;;4.80;97.70;;;;;;5057307;28;20244;-69
2021/03/08 01:08:41;;;;;;;26.70;16.13;;;4.80;97.80;;;;;;5056537;28;20283;-69
2021/03/08 01:11:07;;;;;;;23.50;15.37;;;4.70;98.00;;;;;;5056379;28;20250;-70
2021/03/08 01:13:33;;;;;;;25.97;17.27;;;4.70;98.20;;;;;;5054021;28;20208;-71
2021/03/08 01:15:58;;;;;;;24.50;16.47;;;4.70;98.40;;;;;;5056604;28;20495;-70
2021/03/08 01:18:24;;;;;;;25.70;17.10;;;4.60;98.60;;;;;;5054835;28;20415;-70
2021/03/08 01:20:50;;;;;;;24.00;16.73;;;4.40;98.90;;;;;;5056265;28;20218;-70
2021/03/08 01:23:16;;;;;;;26.87;16.70;;;4.30;99.30;;;;;;5042618;28;20935;-70
2021/03/08 01:25:41;;;;;;;27.10;17.13;;;4.30;99.50;;;;;;5037138;28;20194;-70
2021/03/08 01:28:07;;;;;;;23.57;16.03;;;4.30;99.60;;;;;;5036003;28;20203;-70
2021/03/08 01:30:37;;;;;;;25.80;16.27;;;4.40;99.60;;;;;;5035872;28;20668;-70
2021/03/08 01:33:03;;;;;;;24.23;15.60;;;4.50;99.60;;;;;;5035995;28;20420;-70
2021/03/08 01:35:29;;;;;;;22.70;16.27;;;4.60;99.30;;;;;;5036639;28;20405;-70
2021/03/08 01:37:55;;;;;;;26.07;16.87;;;4.70;99.10;;;;;;5042803;28;20446;-69
2021/03/08 01:40:24;;;;;;;24.43;16.80;;;4.70;98.90;;;;;;5054596;28;20431;-69
2021/03/08 01:42:49;;;;;;;24.33;16.27;;;4.70;98.80;;;;;;5055530;28;20895;-70
2021/03/08 01:45:16;;;;;;;26.67;16.83;;;4.70;98.90;;;;;;5055851;28;20412;-70
2021/03/08 01:47:44;;;;;;;28.80;16.50;;;4.70;98.90;;;;;;5055600;28;20181;-70
2021/03/08 01:50:14;;;;;;;25.23;16.23;;;4.70;98.90;;;;;;5040663;28;20505;-70
2021/03/08 01:52:40;;;;;;;31.20;18.63;;;4.70;99.00;;;;;;5035747;28;20411;-70
2021/03/08 01:55:07;;;;;;;25.00;16.60;;;4.70;99.00;;;;;;5035611;28;20409;-71
2021/03/08 01:57:33;;;;;;;31.73;19.27;;;4.70;99.00;;;;;;5035534;28;20411;-70
2021/03/08 01:59:59;;;;;;;28.37;17.90;;;4.70;99.20;;;;;;5036804;28;20435;-69
2021/03/08 02:02:24;;;;;;;27.20;17.67;;;4.60;99.30;;;;;;5035696;28;20206;-70
2021/03/08 02:04:50;;;;;;;27.53;18.13;;;4.60;99.50;;;;;;5035611;28;20178;-70
2021/03/08 02:07:15;;;;;;;26.67;17.03;;;4.60;99.70;;;;;;5036208;28;20233;-70
2021/03/08 02:09:41;;;;;;;25.30;18.30;;;4.60;99.70;;;;;;5035884;28;20209;-70
2021/03/08 02:12:19;;;;;;;30.67;17.20;;;4.70;99.70;;;;;;5036312;28;20178;-70
2021/03/08 02:15:07;;;;;;;32.77;18.80;;;4.60;99.90;;;;;;5036092;28;20191;-70
2021/03/08 02:17:51;;;;;;;28.20;17.83;;;4.60;99.90;;;;;;5049669;28;20412;-70
2021/03/08 02:20:26;;;;;;;24.33;15.80;;;4.60;99.90;;;;;;5059144;28;20465;-69
2021/03/08 02:23:09;;;;;;;32.70;18.17;;;4.60;99.90;;;;;;5060093;28;20434;-70
2021/03/08 02:26:24;;;;;;;28.87;18.70;;;4.60;99.90;;;;;;5073687;28;20407;-70
2021/03/08 02:29:27;;;;;;;25.80;17.30;;;4.60;99.90;;;;;;5066794;28;20539;-69
2021/03/08 02:31:57;;;;;;;35.63;18.03;;;4.60;99.90;;;;;;5053376;28;20430;-69
2021/03/08 02:34:34;;;;;;;26.23;17.30;;;4.70;99.90;;;;;;5058324;28;20905;-69
2021/03/08 02:37:03;;;;;;;30.10;18.13;;;4.80;99.90;;;;;;5056507;28;20439;-70
2021/03/08 02:39:34;;;;;;;26.63;16.73;;;4.80;99.90;;;;;;5054647;28;20439;-69
2021/03/08 02:42:02;;;;;;;29.33;18.63;;;4.70;99.90;;;;;;5053507;28;20478;-70
2021/03/08 02:44:35;;;;;;;29.37;19.10;;;4.70;99.90;;;;;;5054991;28;20455;-70
2021/03/08 02:47:01;;;;;;;29.33;18.13;;;4.60;99.90;;;;;;5054669;28;20491;-70
2021/03/08 02:49:29;;;;;;;30.73;19.87;;;4.50;99.90;;;;;;5054684;28;20477;-69
2021/03/08 02:52:04;;;;;;;29.70;18.33;;;4.40;99.90;;;;;;5052709;28;20184;-70
2021/03/08 02:54:33;;;;;;;31.20;19.90;;;4.40;99.90;;;;;;5053839;28;20538;-70
2021/03/08 02:57:04;;;;;;;28.73;19.73;;;4.50;99.90;;;;;;5053774;28;20455;-69
2021/03/08 02:59:36;;;;;;;29.40;18.50;;;4.50;99.90;;;;;;5054062;28;20865;-70
2021/03/08 03:02:02;;;;;;;31.97;19.63;;;4.60;99.90;;;;;;5053705;28;20467;-69
2021/03/08 03:04:29;;;;;;;29.53;19.23;;;4.70;99.90;;;;;;5052596;28;20413;-69
2021/03/08 03:06:56;;;;;;;31.83;19.23;;;4.70;99.90;;;;;;5053892;28;20883;-69
2021/03/08 03:09:22;;;;;;;32.27;18.53;;;4.70;99.90;;;;;;5054010;28;20409;-70
2021/03/08 03:11:54;;;;;;;29.73;17.80;;;4.50;99.90;;;;;;5053957;28;20444;-70
2021/03/08 03:14:22;;;;;;;27.50;17.97;;;4.60;99.90;;;;;;5051639;28;20424;-70
2021/03/08 03:16:53;;;;;;;30.50;17.97;;;4.50;99.90;;;;;;5053731;28;20509;-69
2021/03/08 03:19:21;;;;;;;29.13;19.30;;;4.50;99.90;;;;;;5043998;28;20511;-70
2021/03/08 03:21:48;;;;;;;34.70;18.80;;;4.40;99.90;;;;;;5035917;28;20545;-70
2021/03/08 03:24:13;;;;;;;32.27;19.40;;;4.40;99.90;;;;;;5038910;28;20451;-69
2021/03/08 03:26:40;;;;;;;32.60;19.70;;;4.40;99.90;;;;;;5034185;28;20405;-70
2021/03/08 03:29:08;;;;;;;33.33;18.23;;;4.40;99.90;;;;;;5033697;28;20531;-70
2021/03/08 03:31:38;;;;;;;30.37;18.20;;;4.40;99.90;;;;;;5032476;28;20448;-69
2021/03/08 03:34:05;;;;;;;28.03;17.00;;;4.40;99.90;;;;;;5034314;28;20441;-69
2021/03/08 03:36:37;;;;;;;32.17;19.03;;;4.40;99.90;;;;;;5051929;28;20421;-70
2021/03/08 03:39:07;;;;;;;27.60;18.53;;;4.50;99.90;;;;;;5051999;28;20500;-70
2021/03/08 03:41:33;;;;;;;33.93;20.20;;;4.50;99.90;;;;;;5053063;28;20813;-70
2021/03/08 03:44:00;;;;;;;33.20;19.03;;;4.60;99.90;;;;;;5053565;28;20440;-70
2021/03/08 03:46:26;;;;;;;30.87;18.63;;;4.70;99.90;;;;;;5052096;28;20431;-70
2021/03/08 03:48:52;;;;;;;31.30;18.80;;;4.80;99.90;;;;;;5054291;28;20450;-70
2021/03/08 03:51:17;;;;;;;36.00;21.00;;;4.70;99.90;;;;;;5054117;28;20458;-70
2021/03/08 03:53:43;;;;;;;30.80;19.47;;;4.70;99.90;;;;;;5053357;28;20203;-70
2021/03/08 03:56:10;;;;;;;34.10;20.00;;;4.70;99.90;;;;;;5051684;28;20180;-70
2021/03/08 03:58:53;;;;;;;36.03;22.00;;;4.70;99.90;;;;;;5052604;28;20178;-70
2021/03/08 04:01:28;;;;;;;31.87;19.67;;;4.70;99.90;;;;;;5033751;28;20455;-70
2021/03/08 04:04:00;;;;;;;30.33;19.23;;;4.60;99.90;;;;;;5032372;28;20495;-69
2021/03/08 04:06:40;;;;;;;35.07;19.50;;;4.60;99.90;;;;;;5034579;28;20830;-69
2021/03/08 04:09:08;;;;;;;36.60;22.57;;;4.60;99.90;;;;;;5053492;28;20733;-70
2021/03/08 04:11:38;;;;;;;32.90;20.80;;;4.50;99.90;;;;;;5053085;28;20442;-70
2021/03/08 04:14:06;;;;;;;35.47;20.97;;;4.40;99.90;;;;;;5052970;28;20446;-70
2021/03/08 04:16:35;;;;;;;33.43;20.80;;;4.50;99.90;;;;;;5051823;28;20780;-70
2021/03/08 04:19:02;;;;;;;35.73;20.07;;;4.50;99.90;;;;;;5050644;28;20887;-70
2021/03/08 04:21:34;;;;;;;29.87;19.53;;;4.60;99.90;;;;;;5053134;28;20579;-69
2021/03/08 04:24:01;;;;;;;35.30;20.77;;;4.70;99.90;;;;;;5053213;28;20428;-68
2021/03/08 04:26:27;;;;;;;38.77;22.20;;;4.70;99.90;;;;;;5055920;28;20409;-70
2021/03/08 04:28:53;;;;;;;35.47;20.73;;;4.70;99.90;;;;;;5055087;28;20444;-68
2021/03/08 04:31:19;;;;;;;35.60;21.37;;;4.60;99.90;;;;;;5056141;28;20430;-70
2021/03/08 04:33:46;;;;;;;33.83;21.00;;;4.60;99.90;;;;;;5040319;28;20182;-70
2021/03/08 04:36:12;;;;;;;38.23;23.93;;;4.60;99.90;;;;;;5037505;28;20306;-70
2021/03/08 04:38:41;;;;;;;39.93;22.30;;;4.60;99.90;;;;;;5037843;28;20436;-71
2021/03/08 04:41:07;;;;;;;39.40;22.23;;;4.70;99.90;;;;;;5037108;28;20461;-70
2021/03/08 04:43:34;;;;;;;32.90;21.47;;;4.70;99.90;;;;;;5037038;28;20502;-69
2021/03/08 04:45:59;;;;;;;31.43;19.90;;;4.80;99.90;;;;;;5037250;28;20771;-70
2021/03/08 04:48:27;;;;;;;31.03;19.80;;;4.80;99.90;;;;;;5037363;28;20418;-69
2021/03/08 04:50:54;;;;;;;33.90;20.90;;;4.80;99.90;;;;;;5042758;28;20506;-70
2021/03/08 04:53:20;;;;;;;35.53;20.47;;;4.80;99.90;;;;;;5046208;28;20500;-70
2021/03/08 04:55:48;;;;;;;35.87;21.90;;;4.80;99.90;;;;;;5056082;28;20455;-69
2021/03/08 04:58:13;;;;;;;31.80;20.10;;;4.80;99.90;;;;;;5056551;28;20548;-69
2021/03/08 05:00:39;;;;;;;34.80;20.97;;;4.60;99.90;;;;;;5055117;28;20487;-69
2021/03/08 05:03:05;;;;;;;42.07;24.27;;;4.50;99.90;;;;;;5056199;28;20189;-70
2021/03/08 05:05:32;;;;;;;38.33;22.43;;;4.40;99.90;;;;;;5056628;28;20184;-70
2021/03/08 05:08:10;;;;;;;37.80;22.53;;;4.40;99.90;;;;;;5055912;28;20179;-69
2021/03/08 05:10:37;;;;;;;34.10;20.30;;;4.30;99.90;;;;;;5054725;28;20924;-69
2021/03/08 05:13:06;;;;;;;37.70;21.83;;;4.20;99.90;;;;;;5056060;28;20477;-70
2021/03/08 05:15:33;;;;;;;35.80;21.67;;;4.20;99.90;;;;;;5056513;28;20435;-70
2021/03/08 05:18:01;;;;;;;38.20;21.37;;;4.20;99.90;;;;;;5055984;28;20418;-70
2021/03/08 05:20:30;;;;;;;35.97;20.93;;;4.20;99.90;;;;;;5039439;28;20848;-69
2021/03/08 05:22:56;;;;;;;42.83;23.30;;;4.10;99.90;;;;;;5043131;28;20441;-70
2021/03/08 05:25:23;;;;;;;40.03;24.67;;;4.20;99.90;;;;;;5040675;28;20509;-70
2021/03/08 05:27:49;;;;;;;35.30;20.50;;;4.20;99.90;;;;;;5036177;28;20404;-70
2021/03/08 05:30:20;;;;;;;41.03;23.33;;;4.20;99.90;;;;;;5036279;28;20933;-70
2021/03/08 05:32:54;;;;;;;35.93;22.20;;;4.20;99.90;;;;;;5047153;28;20446;-70
2021/03/08 05:35:22;;;;;;;42.23;23.13;;;4.20;99.90;;;;;;5036059;28;20408;-70
2021/03/08 05:37:48;;;;;;;37.87;22.50;;;4.10;99.90;;;;;;5044678;28;20429;-70
2021/03/08 05:40:38;;;;;;;35.23;22.00;;;4.10;99.90;;;;;;5040682;28;20446;-70
2021/03/08 05:43:09;;;;;;;40.60;23.80;;;4.10;99.90;;;;;;5049336;28;20537;-69
2021/03/08 05:45:42;;;;;;;41.10;22.97;;;4.10;99.90;;;;;;5060244;28;20456;-69
2021/03/08 05:48:30;;;;;;;37.03;23.63;;;4.10;99.90;;;;;;5056864;28;20755;-69
2021/03/08 05:51:02;;;;;;;44.97;25.43;;;4.20;99.90;;;;;;5056652;28;20448;-70
2021/03/08 05:54:02;;;;;;;37.63;22.00;;;4.30;99.90;;;;;;5041460;28;20447;-70
2021/03/08 05:56:38;;;;;;;40.87;23.00;;;4.20;99.90;;;;;;5061007;28;20431;-70
2021/03/08 05:59:36;;;;;;;45.00;22.50;;;4.10;99.90;;;;;;5063212;28;20555;-70
2021/03/08 06:02:24;;;;;;;45.70;25.23;;;4.10;99.90;;;;;;5047149;28;20471;-69
2021/03/08 06:04:59;;;;;;;39.53;22.70;;;4.20;99.90;;;;;;5043855;28;20847;-69
2021/03/08 06:08:02;;;;;;;41.17;23.27;;;4.30;99.90;;;;;;5044692;28;20407;-70
2021/03/08 06:10:43;;;;;;;;;;;;;;;;;;;;;
2021/03/08 06:13:09;;;;;;;46.67;23.93;;;4.10;99.90;;;;;;5042583;28;20427;-68
2021/03/08 06:15:36;;;;;;;39.43;22.40;;;4.00;99.90;;;;;;5035929;28;20429;-69
2021/03/08 06:18:06;;;;;;;43.30;24.43;;;4.00;99.90;;;;;;5036135;28;20445;-69
2021/03/08 06:20:32;;;;;;;44.33;23.77;;;4.00;99.90;;;;;;5047234;28;20516;-69
2021/03/08 06:23:00;;;;;;;41.37;24.93;;;4.10;99.90;;;;;;5049789;28;20509;-69
2021/03/08 06:25:26;;;;;;;40.50;21.93;;;4.20;99.90;;;;;;5043644;28;20486;-70
2021/03/08 06:27:53;;;;;;;42.43;24.17;;;4.30;99.90;;;;;;5037624;28;20428;-68
2021/03/08 06:30:20;;;;;;;39.20;23.00;;;4.40;99.90;;;;;;5036668;28;20470;-71
2021/03/08 06:32:46;;;;;;;42.47;23.93;;;4.50;99.90;;;;;;5043387;28;20605;-70
2021/03/08 06:35:14;;;;;;;35.80;23.13;;;4.60;99.90;;;;;;5040931;28;20529;-69
2021/03/08 06:37:40;;;;;;;42.77;26.53;;;4.70;99.90;;;;;;5046462;28;20171;-70
2021/03/08 06:40:09;;;;;;;40.07;22.27;;;4.70;99.90;;;;;;5045333;28;20547;-69
2021/03/08 06:42:35;;;;;;;35.57;22.27;;;4.80;99.90;;;;;;5041692;28;20502;-70
2021/03/08 06:45:01;;;;;;;39.17;23.53;;;4.80;99.90;;;;;;5043020;28;20448;-70
2021/03/08 06:47:26;;;;;;;37.43;22.70;;;4.90;99.90;;;;;;5037081;28;20525;-69
2021/03/08 06:49:54;;;;;;;40.43;23.37;;;4.80;99.90;;;;;;5052737;28;20185;-69
2021/03/08 06:52:21;;;;;;;42.77;24.23;;;4.70;99.90;;;;;;5043725;28;20682;-70
2021/03/08 06:55:01;;;;;;;41.47;24.90;;;4.50;99.90;;;;;;5036579;28;20435;-69
2021/03/08 06:57:31;;;;;;;37.40;23.30;;;4.60;99.90;;;;;;5062214;28;20509;-70
2021/03/08 07:00:03;;;;;;;41.87;24.37;;;4.60;99.90;;;;;;5058924;28;20458;-69
2021/03/08 07:02:48;;;;;;;42.93;24.70;;;4.60;99.90;;;;;;5065010;28;20497;-69
2021/03/08 07:05:22;;;;;;;44.67;25.03;;;4.60;99.90;;;;;;5046094;28;20514;-68
2021/03/08 07:07:48;;;;;;;40.97;26.37;;;4.60;99.90;;;;;;5033366;28;20478;-70
2021/03/08 07:10:15;;;;;;;40.33;24.77;;;4.60;99.90;;;;;;5050860;28;20957;-69
2021/03/08 07:12:52;;;;;;;42.47;24.30;;;4.60;99.90;;;;;;5061678;28;20428;-70
2021/03/08 07:15:18;;;;;;;44.57;24.43;;;4.60;99.90;;;;;;5073853;28;20511;-70
2021/03/08 07:17:43;;;;;;;41.80;25.93;;;4.50;99.90;;;;;;5074243;28;20453;-69
2021/03/08 07:20:13;;;;;;;36.43;23.33;;;4.50;99.90;;;;;;5072173;28;20461;-70
2021/03/08 07:22:46;;;;;;;39.77;25.00;;;4.50;99.90;;;;;;5073926;28;20215;-69
2021/03/08 07:25:25;;;;;;;39.73;23.63;;;4.60;99.90;;;;;;5074310;28;20418;-70
2021/03/08 07:27:52;;;;;;;39.07;24.63;;;4.60;99.90;;;;;;5074047;28;20418;-69
2021/03/08 07:30:24;;;;;;;41.10;24.03;;;4.70;99.90;;;;;;5061333;28;20750;-69
2021/03/08 07:32:56;;;;;;;39.20;24.70;;;4.70;99.90;;;;;;5053939;28;20498;-69
2021/03/08 07:35:45;;;;;;;43.27;25.97;;;4.90;99.90;;;;;;5053406;28;20494;-69
2021/03/08 07:38:33;;;;;;;45.03;24.30;;;4.90;99.90;;;;;;5053123;28;20420;-70
2021/03/08 07:41:13;;;;;;;41.23;25.30;;;5.00;99.90;;;;;;5053461;28;20505;-70
2021/03/08 07:43:40;;;;;;;45.57;26.27;;;5.00;99.90;;;;;;5053680;28;20423;-70
2021/03/08 07:46:06;;;;;;;41.20;24.03;;;5.10;99.90;;;;;;5053380;28;20415;-70
2021/03/08 07:48:31;;;;;;;41.00;25.30;;;5.00;99.90;;;;;;5053371;28;20498;-70
2021/03/08 07:51:06;;;;;;;43.20;25.77;;;4.90;99.90;;;;;;5053343;28;20469;-71
2021/03/08 07:53:34;;;;;;;42.40;25.20;;;4.90;99.90;;;;;;5053994;28;20176;-70
2021/03/08 07:56:05;;;;;;;39.57;24.20;;;4.80;99.90;;;;;;5053973;28;20416;-68
2021/03/08 07:58:35;;;;;;;46.10;25.77;;;4.80;99.90;;;;;;5054788;28;20408;-69
2021/03/08 08:01:03;;;;;;;42.83;25.27;;;4.90;99.90;;;;;;5056150;28;20471;-68
2021/03/08 08:03:29;;;;;;;42.13;23.60;;;5.00;99.90;;;;;;5063224;28;20411;-69
2021/03/08 08:05:59;;;;;;;49.23;25.83;;;5.10;99.90;;;;;;5093309;28;20415;-69
2021/03/08 08:08:28;;;;;;;43.67;27.63;;;5.10;99.90;;;;;;5077490;28;20439;-69
2021/03/08 08:10:55;;;;;;;46.47;25.97;;;5.10;99.90;;;;;;5077269;28;20434;-69
2021/03/08 08:13:34;;;;;;;44.80;26.80;;;5.00;99.90;;;;;;5077463;28;20411;-69
2021/03/08 08:16:03;;;;;;;43.13;26.20;;;4.80;99.90;;;;;;5077390;28;20402;-69
2021/03/08 08:18:31;;;;;;;43.50;27.60;;;4.60;99.90;;;;;;5077277;28;20775;-68
2021/03/08 08:20:57;;;;;;;47.57;28.20;;;4.50;99.90;;;;;;5076996;28;20516;-69
2021/03/08 08:23:28;;;;;;;47.70;26.90;;;4.40;99.90;;;;;;5077430;28;20921;-69
2021/03/08 08:25:53;;;;;;;46.33;26.57;;;4.40;99.90;;;;;;5077486;28;20414;-69
2021/03/08 08:28:20;;;;;;;45.87;26.50;;;4.40;99.90;;;;;;5076654;28;20429;-69
2021/03/08 08:30:56;;;;;;;46.80;26.07;;;4.40;99.90;;;;;;5077031;28;20519;-69
2021/03/08 08:33:30;;;;;;;47.07;25.87;;;4.20;99.90;;;;;;5076970;28;20410;-69
2021/03/08 08:36:19;;;;;;;46.87;26.70;;;4.20;99.90;;;;;;5076999;28;20437;-69
2021/03/08 08:38:54;;;;;;;46.60;27.57;;;4.20;99.90;;;;;;5076719;28;20413;-69
2021/03/08 08:41:22;;;;;;;50.33;29.20;;;4.40;99.90;;;;;;5076944;28;20473;-70
2021/03/08 08:44:07;;;;;;;48.70;29.23;;;4.60;99.90;;;;;;5077053;28;20868;-69
2021/03/08 08:46:38;;;;;;;48.07;26.63;;;4.70;99.90;;;;;;5076649;28;20489;-69
2021/03/08 08:49:08;;;;;;;47.10;26.87;;;4.80;99.90;;;;;;5076697;28;20409;-69
2021/03/08 08:51:52;;;;;;;47.40;27.03;;;4.90;99.90;;;;;;5076706;28;20428;-69
2021/03/08 08:54:27;;;;;;;51.23;27.27;;;5.00;99.90;;;;;;5076531;28;20449;-69
2021/03/08 08:56:58;;;;;;;51.40;28.87;;;5.10;99.90;;;;;;5076357;28;20961;-69
2021/03/08 08:59:27;;;;;;;52.43;29.53;;;5.10;99.90;;;;;;5076088;28;20958;-69
2021/03/08 09:02:12;;;;;;;50.70;29.77;;;5.10;99.90;;;;;;5076257;28;20446;-69
2021/03/08 09:04:38;;;;;;;51.10;28.77;;;5.20;99.90;;;;;;5061789;28;20420;-69
2021/03/08 09:07:23;;;;;;;56.67;30.27;;;5.20;99.90;;;;;;5056392;28;20400;-69
2021/03/08 09:09:49;;;;;;;56.57;29.47;;;5.30;99.90;;;;;;5056018;28;20529;-69
2021/03/08 09:12:31;;;;;;;54.33;29.97;;;5.30;99.90;;;;;;5071647;28;20452;-69
2021/03/08 09:15:04;;;;;;;60.27;30.33;;;5.40;99.90;;;;;;5056547;28;20515;-69
2021/03/08 09:17:31;;;;;;;51.73;31.00;;;5.50;99.90;;;;;;5072710;28;20409;-69
2021/03/08 09:19:57;;;;;;;51.93;30.70;;;5.30;99.90;;;;;;5056774;28;20492;-69
2021/03/08 09:22:22;;;;;;;54.20;30.00;;;5.20;99.90;;;;;;5056629;28;20522;-70
2021/03/08 09:24:49;;;;;;;53.93;27.70;;;5.30;99.90;;;;;;5084603;28;20166;-69
2021/03/08 09:27:34;;;;;;;55.10;29.47;;;5.30;99.90;;;;;;5068020;28;20591;-70
2021/03/08 09:30:05;;;;;;;49.83;27.87;;;5.40;99.90;;;;;;5057907;28;20927;-69
2021/03/08 09:32:32;;;;;;;54.07;28.13;;;5.50;99.90;;;;;;5068260;28;20442;-69
2021/03/08 09:35:06;;;;;;;49.20;28.77;;;5.50;99.90;;;;;;5072986;28;20421;-70
2021/03/08 09:37:33;;;;;;;50.57;27.47;;;5.20;99.90;;;;;;5061698;28;20879;-69
2021/03/08 09:40:00;;;;;;;46.80;27.97;;;5.20;99.90;;;;;;5056942;28;20432;-69
2021/03/08 09:42:36;;;;;;;51.40;28.00;;;5.00;99.90;;;;;;5056867;28;20539;-70
2021/03/08 09:45:17;;;;;;;51.83;30.90;;;4.70;99.90;;;;;;5055804;28;20416;-69
2021/03/08 09:47:44;;;;;;;55.83;30.10;;;4.80;99.90;;;;;;5056196;28;20433;-69
2021/03/08 09:50:10;;;;;;;52.10;29.03;;;5.00;99.90;;;;;;5071061;28;21010;-70
2021/03/08 09:52:41;;;;;;;56.07;28.70;;;5.20;99.90;;;;;;5055796;28;20420;-73
2021/03/08 09:55:15;;;;;;;47.47;28.97;;;5.30;99.90;;;;;;5055839;28;20447;-69
2021/03/08 09:57:43;;;;;;;52.83;28.87;;;5.20;99.90;;;;;;5056146;28;20420;-70
2021/03/08 10:00:34;;;;;;;51.20;27.97;;;5.10;99.90;;;;;;5055452;28;20428;-71
2021/03/08 10:03:02;;;;;;;53.40;28.30;;;5.00;99.90;;;;;;5075036;28;20435;-70
2021/03/08 10:05:49;;;;;;;57.93;31.33;;;4.90;99.90;;;;;;5094206;28;20548;-71
2021/03/08 10:08:16;;;;;;;60.10;32.83;;;4.80;99.90;;;;;;5093262;28;20544;-69
2021/03/08 10:10:52;;;;;;;62.87;31.70;;;4.80;99.90;;;;;;5093670;28;20601;-70
2021/03/08 10:13:19;;;;;;;56.90;29.63;;;4.90;99.90;;;;;;5093598;28;20428;-69
2021/03/08 10:15:50;;;;;;;54.40;31.60;;;4.90;99.90;;;;;;5093611;28;20411;-69
2021/03/08 10:18:24;;;;;;;56.73;32.17;;;5.20;99.90;;;;;;5096623;28;20403;-69
2021/03/08 10:20:58;;;;;;;55.83;30.57;;;5.20;99.90;;;;;;5097294;28;20506;-70
2021/03/08 10:23:26;;;;;;;56.87;30.53;;;5.00;99.90;;;;;;5093866;28;20930;-69
2021/03/08 10:25:53;;;;;;;62.70;32.80;;;5.00;99.90;;;;;;5093386;28;20484;-69
2021/03/08 10:28:19;;;;;;;57.00;30.50;;;5.10;99.90;;;;;;5092951;28;20418;-69
2021/03/08 10:30:45;;;;;;;58.43;32.47;;;5.30;99.90;;;;;;5093080;28;20523;-68
2021/03/08 10:33:12;;;;;;;59.47;31.73;;;5.50;99.90;;;;;;5093117;28;20426;-69
2021/03/08 10:35:42;;;;;;;61.53;30.07;;;5.70;99.90;;;;;;5093197;28;20427;-69
2021/03/08 10:38:08;;;;;;;62.00;33.40;;;5.90;99.90;;;;;;5110653;28;20406;-69
2021/03/08 10:40:35;;;;;;;58.30;31.07;;;6.00;99.90;;;;;;5095468;28;20439;-69
2021/03/08 10:43:01;;;;;;;62.13;31.80;;;5.90;99.90;;;;;;5084415;28;20441;-70
2021/03/08 10:45:27;;;;;;;67.87;31.80;;;6.00;99.90;;;;;;5074764;28;20494;-70
2021/03/08 10:48:10;;;;;;;60.93;33.63;;;6.10;99.90;;;;;;5074127;28;20169;-69
2021/03/08 10:50:52;;;;;;;59.60;30.07;;;6.30;99.90;;;;;;5074482;28;20481;-70
2021/03/08 10:53:19;;;;;;;58.10;30.80;;;6.50;99.90;;;;;;5074258;28;20411;-69
2021/03/08 10:55:46;;;;;;;59.80;31.20;;;6.70;99.90;;;;;;5061871;28;20927;-69
2021/03/08 10:58:13;;;;;;;50.70;28.83;;;6.70;99.90;;;;;;5052999;28;20412;-69
2021/03/08 11:00:40;;;;;;;45.47;26.30;;;6.80;99.90;;;;;;5052086;28;20449;-69
2021/03/08 11:03:05;;;;;;;45.10;27.57;;;6.90;99.90;;;;;;5053508;28;20401;-70
2021/03/08 11:05:32;;;;;;;48.33;26.57;;;6.80;99.90;;;;;;5071980;28;20461;-70
2021/03/08 11:08:00;;;;;;;50.03;27.07;;;6.70;99.90;;;;;;5071706;28;20588;-69
2021/03/08 11:10:38;;;;;;;44.97;25.87;;;6.80;99.90;;;;;;5072131;28;20435;-69
2021/03/08 11:13:07;;;;;;;45.63;25.70;;;6.90;99.90;;;;;;5072663;28;20450;-70
2021/03/08 11:15:35;;;;;;;46.03;26.90;;;6.70;99.90;;;;;;5073998;28;20400;-69
2021/03/08 11:18:01;;;;;;;48.13;25.60;;;6.60;99.90;;;;;;5074138;28;20396;-69
2021/03/08 11:20:29;;;;;;;42.17;25.00;;;6.70;99.90;;;;;;5073739;28;20439;-69
2021/03/08 11:23:02;;;;;;;45.93;25.97;;;6.60;99.90;;;;;;5089503;28;20417;-69
2021/03/08 11:25:32;;;;;;;47.67;27.20;;;6.70;99.90;;;;;;5073982;28;20417;-69
2021/03/08 11:27:59;;;;;;;57.93;29.47;;;6.70;99.90;;;;;;5073818;28;20400;-69
2021/03/08 11:30:26;;;;;;;46.87;27.83;;;6.70;99.90;;;;;;5073888;28;20478;-69
2021/03/08 11:32:57;;;;;;;50.20;28.17;;;6.70;99.90;;;;;;5073872;28;20443;-69
2021/03/08 11:35:25;;;;;;;44.93;26.00;;;6.80;99.90;;;;;;5073612;28;20407;-69
2021/03/08 11:37:53;;;;;;;46.33;27.30;;;6.90;99.90;;;;;;5073950;28;20745;-70
2021/03/08 11:40:21;;;;;;;64.43;31.00;;;7.00;99.90;;;;;;5073750;28;20462;-69
2021/03/08 11:42:47;;;;;;;53.47;31.80;;;7.00;99.90;;;;;;5074077;28;20530;-70
2021/03/08 11:45:13;;;;;;;61.43;30.07;;;7.00;99.90;;;;;;5073976;28;20534;-69
2021/03/08 11:47:39;;;;;;;54.47;29.17;;;6.70;99.90;;;;;;5074269;28;20211;-69
2021/03/08 11:50:06;;;;;;;56.83;29.73;;;6.40;99.90;;;;;;5074111;28;20485;-69
2021/03/08 11:52:32;;;;;;;53.50;30.20;;;6.30;99.90;;;;;;5075396;28;20174;-70
2021/03/08 11:54:57;;;;;;;49.90;28.20;;;6.40;99.90;;;;;;5075496;28;20741;-68
2021/03/08 11:57:23;;;;;;;62.93;30.30;;;6.50;99.90;;;;;;5073684;28;20177;-69
2021/03/08 11:59:48;;;;;;;52.40;27.63;;;6.50;99.90;;;;;;5073561;28;20259;-70
2021/03/08 12:02:14;;;;;;;56.47;29.97;;;6.60;99.90;;;;;;5073892;28;20196;-70
2021/03/08 12:04:39;;;;;;;53.00;29.90;;;6.60;99.90;;;;;;5058526;28;20205;-69
2021/03/08 12:07:05;;;;;;;53.10;27.97;;;6.50;99.90;;;;;;5053573;28;20655;-69
2021/03/08 12:09:33;;;;;;;48.60;26.90;;;6.60;99.90;;;;;;5053411;28;20189;-70
2021/03/08 12:11:59;;;;;;;47.27;26.67;;;6.70;99.90;;;;;;5053765;28;20198;-70
2021/03/08 12:14:25;;;;;;;45.17;26.60;;;6.80;99.90;;;;;;5053578;28;20499;-70
2021/03/08 12:16:50;;;;;;;52.60;29.00;;;6.80;99.90;;;;;;5053430;28;20471;-69
2021/03/08 12:19:17;;;;;;;50.77;27.83;;;6.90;99.90;;;;;;5053023;28;20551;-69
2021/03/08 12:21:44;;;;;;;51.20;29.13;;;7.10;99.90;;;;;;5053082;28;20289;-69
2021/03/08 12:24:10;;;;;;;55.00;27.13;;;7.10;99.90;;;;;;5053187;28;20400;-69
2021/03/08 12:26:36;;;;;;;49.40;26.77;;;7.20;99.90;;;;;;5053317;28;20455;-70
2021/03/08 12:29:01;;;;;;;51.53;26.33;;;7.30;99.90;;;;;;5052995;28;20245;-69
2021/03/08 12:31:27;;;;;;;52.27;28.80;;;7.30;99.90;;;;;;5053060;28;20194;-69
2021/03/08 12:33:53;;;;;;;50.33;28.07;;;7.40;99.90;;;;;;5053140;28;20180;-70
2021/03/08 12:36:19;;;;;;;46.97;27.43;;;7.40;99.90;;;;;;5052657;28;20428;-70
2021/03/08 12:38:44;;;;;;;47.80;28.43;;;7.30;99.90;;;;;;5052703;28;20174;-69
2021/03/08 12:41:10;;;;;;;49.37;28.97;;;7.00;99.90;;;;;;5052712;28;20202;-69
2021/03/08 12:43:36;;;;;;;46.97;26.20;;;6.80;99.90;;;;;;5052911;28;20174;-69
2021/03/08 12:46:01;;;;;;;58.67;29.83;;;6.50;99.90;;;;;;5053213;28;20405;-70
2021/03/08 12:48:27;;;;;;;58.37;29.23;;;6.50;99.90;;;;;;5056402;28;20212;-70
2021/03/08 12:50:52;;;;;;;50.87;28.27;;;6.30;99.90;;;;;;5056708;28;20549;-69